createdAt,value
2023-04-11T00:02:04.737Z,2.63
2023-04-11T00:05:12.943Z,2.97
2023-04-11T00:08:21.640Z,2.90
2023-04-11T00:11:29.536Z,2.63
2023-04-11T00:14:38.171Z,3.08
2023-04-11T00:17:48.965Z,3.10
2023-04-11T00:20:56.925Z,2.65
2023-04-11T00:24:05.234Z,3.15
2023-04-11T00:27:13.524Z,2.90
2023-04-11T00:30:21.478Z,2.90
2023-04-11T00:33:31.266Z,3.50
2023-04-11T00:36:41.869Z,2.85
2023-04-11T00:39:52.834Z,2.80
2023-04-11T00:43:01.063Z,3.72
2023-04-11T00:46:10.115Z,3.20
2023-04-11T00:49:19.412Z,2.88
2023-04-11T00:52:27.412Z,3.08
2023-04-11T00:55:35.546Z,3.08
2023-04-11T00:58:43.656Z,3.53
2023-04-11T01:01:51.986Z,3.55
2023-04-11T01:05:02.298Z,3.88
2023-04-11T01:08:09.965Z,3.60
2023-04-11T01:11:20.079Z,3.60
2023-04-11T01:14:27.861Z,3.42
2023-04-11T01:17:35.574Z,3.00
2023-04-11T01:20:45.008Z,3.65
2023-04-11T01:23:54.518Z,4.13
2023-04-11T01:27:03.236Z,3.75
2023-04-11T01:30:12.569Z,3.75
2023-04-11T01:33:21.185Z,3.25
2023-04-11T01:36:29.954Z,3.58
2023-04-11T01:39:39.367Z,3.47
2023-04-11T01:42:47.555Z,3.47
2023-04-11T01:45:55.520Z,3.55
2023-04-11T01:49:04.106Z,3.90
2023-04-11T01:52:13.152Z,3.90
2023-04-11T01:55:24.178Z,3.67
2023-04-11T01:58:32.349Z,3.63
2023-04-11T02:01:41.771Z,3.78
2023-04-11T02:04:49.922Z,3.95
2023-04-11T02:07:58.279Z,4.40
2023-04-11T02:11:09.109Z,3.92
2023-04-11T02:14:18.266Z,3.95
2023-04-11T02:17:30.883Z,4.10
2023-04-11T02:23:48.524Z,4.40
2023-04-11T02:26:58.037Z,3.65
2023-04-11T02:30:08.317Z,4.53
2023-04-11T02:33:18.003Z,3.72
2023-04-11T02:36:26.740Z,4.30
2023-04-11T02:39:34.714Z,3.97
2023-04-11T02:42:44.596Z,3.55
2023-04-11T02:46:01.958Z,4.40
2023-04-11T02:49:17.977Z,4.00
2023-04-11T02:52:28.410Z,3.75
2023-04-11T02:55:36.674Z,3.72
2023-04-11T02:58:46.232Z,4.78
2023-04-11T03:01:59.291Z,4.60
2023-04-11T03:05:09.042Z,3.90
2023-04-11T03:08:19.674Z,4.25
2023-04-11T03:11:32.913Z,4.63
2023-04-11T03:14:42.830Z,4.63
2023-04-11T03:17:50.843Z,4.78
2023-04-11T03:20:59.084Z,4.43
2023-04-11T03:24:08.568Z,4.40
2023-04-11T03:27:16.421Z,4.93
2023-04-11T03:30:28.087Z,4.63
2023-04-11T03:33:36.300Z,4.43
2023-04-11T03:36:44.166Z,4.53
2023-04-11T03:39:52.967Z,4.53
2023-04-11T03:43:04.322Z,4.93
2023-04-11T03:46:15.866Z,4.40
2023-04-11T03:52:37.547Z,4.90
2023-04-11T03:55:52.840Z,4.60
2023-04-11T03:59:03.669Z,4.20
2023-04-11T04:02:29.330Z,5.20
2023-04-11T04:05:38.333Z,4.47
2023-04-11T04:08:46.645Z,4.30
2023-04-11T04:11:55.146Z,4.25
2023-04-11T04:15:14.976Z,4.07
2023-04-11T04:18:27.260Z,3.97
2023-04-11T04:21:37.990Z,3.95
2023-04-11T04:24:47.597Z,5.18
2023-04-11T04:28:03.344Z,4.03
2023-04-11T04:31:22.316Z,4.57
2023-04-11T04:34:33.897Z,4.85
2023-04-11T04:37:45.716Z,4.82
2023-04-11T04:41:15.945Z,4.78
2023-04-11T04:44:33.361Z,4.25
2023-04-11T04:47:46.817Z,3.97
2023-04-11T04:50:56.242Z,4.22
2023-04-11T04:54:04.817Z,4.63
2023-04-11T04:57:12.582Z,4.93
2023-04-11T05:00:23.081Z,4.70
2023-04-11T05:03:35.880Z,5.05
2023-04-11T05:06:49.559Z,4.35
2023-04-11T05:09:58.529Z,4.53
2023-04-11T05:13:08.551Z,4.82
2023-04-11T05:16:16.920Z,4.82
2023-04-11T05:19:25.226Z,5.00
2023-04-11T05:22:36.373Z,4.50
2023-04-11T05:25:44.243Z,4.88
2023-04-11T05:28:54.722Z,4.57
2023-04-11T05:32:07.312Z,4.85
2023-04-11T05:35:15.296Z,4.85
2023-04-11T05:38:29.566Z,4.97
2023-04-11T05:41:37.518Z,5.22
2023-04-11T05:44:45.553Z,5.88
2023-04-11T05:47:53.646Z,5.43
2023-04-11T05:51:02.260Z,5.72
2023-04-11T05:54:11.879Z,5.90
2023-04-11T05:57:19.754Z,4.93
2023-04-11T06:00:30.960Z,5.47
2023-04-11T06:03:39.300Z,5.68
2023-04-11T06:06:47.378Z,5.25
2023-04-11T06:09:56.819Z,5.18
2023-04-11T06:13:04.849Z,5.40
2023-04-11T06:16:12.944Z,4.85
2023-04-11T06:19:20.911Z,5.00
2023-04-11T06:22:29.112Z,5.22
2023-04-11T06:25:38.436Z,5.07
2023-04-11T06:28:46.537Z,4.95
2023-04-11T06:31:54.836Z,4.25
2023-04-11T06:35:02.642Z,4.97
2023-04-11T06:38:10.785Z,4.60
2023-04-11T06:41:20.470Z,4.82
2023-04-11T06:44:28.526Z,5.30
2023-04-11T06:47:36.651Z,4.55
2023-04-11T06:50:45.663Z,5.00
2023-04-11T06:53:54.262Z,4.68
2023-04-11T06:57:04.347Z,4.35
2023-04-11T07:00:13.571Z,4.68
2023-04-11T07:03:25.145Z,4.75
2023-04-11T07:06:33.208Z,5.18
2023-04-11T07:09:41.510Z,4.05
2023-04-11T07:12:51.142Z,4.80
2023-04-11T07:15:59.156Z,4.35
2023-04-11T07:19:07.325Z,4.60
2023-04-11T07:22:15.579Z,4.32
2023-04-11T07:25:27.004Z,4.05
2023-04-11T07:28:37.659Z,4.60
2023-04-11T07:31:45.913Z,4.43
2023-04-11T07:34:54.183Z,4.85
2023-04-11T07:38:02.371Z,4.93
2023-04-11T07:41:10.782Z,4.50
2023-04-11T07:44:19.919Z,4.10
2023-04-11T07:47:27.861Z,4.00
2023-04-11T07:50:35.943Z,4.32
2023-04-11T07:53:44.283Z,4.35
2023-04-11T07:56:52.155Z,4.38
2023-04-11T08:00:01.827Z,4.18
2023-04-11T08:03:21.088Z,4.18
2023-04-11T08:06:30.979Z,3.70
2023-04-11T08:09:38.794Z,3.72
2023-04-11T08:12:47.014Z,3.90
2023-04-11T08:15:56.310Z,4.13
2023-04-11T08:19:04.321Z,3.95
2023-04-11T08:22:12.330Z,3.42
2023-04-11T08:25:22.633Z,3.60
2023-04-11T08:28:30.709Z,3.67
2023-04-11T08:31:43.380Z,3.60
2023-04-11T08:34:51.326Z,3.95
2023-04-11T08:37:59.502Z,4.05
2023-04-11T08:41:07.891Z,3.65
2023-04-11T08:44:16.028Z,4.43
2023-04-11T08:47:25.489Z,4.03
2023-04-11T08:50:33.578Z,3.92
2023-04-11T08:53:41.445Z,3.70
2023-04-11T08:56:49.325Z,3.67
2023-04-11T09:00:00.084Z,3.22
2023-04-11T09:03:10.844Z,3.00
2023-04-11T09:06:19.269Z,3.20
2023-04-11T09:09:30.646Z,3.33
2023-04-11T09:12:38.407Z,2.95
2023-04-11T09:15:46.748Z,3.70
2023-04-11T09:18:56.122Z,4.03
2023-04-11T09:22:06.138Z,3.50
2023-04-11T09:25:14.263Z,3.63
2023-04-11T09:28:22.178Z,3.35
2023-04-11T09:31:41.365Z,3.38
2023-04-11T09:34:50.997Z,3.45
2023-04-11T09:38:00.270Z,3.10
2023-04-11T09:41:08.343Z,3.85
2023-04-11T09:44:16.377Z,3.00
2023-04-11T09:47:24.241Z,3.20
2023-04-11T09:50:34.228Z,3.28
2023-04-11T09:53:42.593Z,3.00
2023-04-11T09:56:51.978Z,3.92
2023-04-11T09:59:59.845Z,2.80
2023-04-11T10:03:08.166Z,3.47
2023-04-11T10:06:34.233Z,3.10
2023-04-11T10:09:43.473Z,3.50
2023-04-11T10:12:51.674Z,2.83
2023-04-11T10:16:09.710Z,2.83
2023-04-11T10:19:24.201Z,2.78
2023-04-11T10:23:01.512Z,2.85
2023-04-11T10:26:09.471Z,2.78
2023-04-11T10:29:52.010Z,2.42
2023-04-11T10:33:12.562Z,2.83
2023-04-11T10:36:22.924Z,2.47
2023-04-11T10:40:00.894Z,3.15
2023-04-11T10:43:22.108Z,3.00
2023-04-11T10:46:30.242Z,2.75
2023-04-11T10:49:38.727Z,2.50
2023-04-11T10:52:46.778Z,2.40
2023-04-11T10:55:55.016Z,2.47
2023-04-11T10:59:04.197Z,1.90
2023-04-11T11:02:12.156Z,2.33
2023-04-11T11:05:21.090Z,2.17
2023-04-11T11:08:30.314Z,2.85
2023-04-11T11:11:38.275Z,2.92
2023-04-11T11:14:48.085Z,2.58
2023-04-11T11:17:56.380Z,2.42
2023-04-11T11:21:05.726Z,2.30
2023-04-11T11:24:13.891Z,1.83
2023-04-11T11:27:22.507Z,2.03
2023-04-11T11:30:31.728Z,1.98
2023-04-11T11:33:40.935Z,2.53
2023-04-11T11:36:49.106Z,1.90
2023-04-11T11:39:58.565Z,2.25
2023-04-11T11:43:07.976Z,2.20
2023-04-11T11:46:17.809Z,2.35
2023-04-11T11:49:25.662Z,1.90
2023-04-11T11:52:33.957Z,2.20
2023-04-11T11:55:41.634Z,1.77
2023-04-11T11:58:50.574Z,1.88
2023-04-11T12:02:00.685Z,1.70
2023-04-11T12:05:09.188Z,2.00
2023-04-11T12:08:17.236Z,2.15
2023-04-11T12:11:25.238Z,2.00
2023-04-11T12:14:33.063Z,1.90
2023-04-11T12:17:42.131Z,1.63
2023-04-11T12:20:50.318Z,1.70
2023-04-11T12:23:58.274Z,1.90
2023-04-11T12:27:07.754Z,2.20
2023-04-11T12:30:16.749Z,1.50
2023-04-11T12:33:26.314Z,1.92
2023-04-11T12:36:36.724Z,2.10
2023-04-11T12:39:44.874Z,1.73
2023-04-11T12:42:57.311Z,1.67
2023-04-11T12:46:06.335Z,1.90
2023-04-11T12:49:16.043Z,1.35
2023-04-11T12:52:25.280Z,1.30
2023-04-11T12:55:35.555Z,1.75
2023-04-11T12:58:44.943Z,1.77
2023-04-11T13:01:53.187Z,2.00
2023-04-11T13:05:06.438Z,1.60
2023-04-11T13:08:14.620Z,2.30
2023-04-11T13:11:22.873Z,1.52
2023-04-11T13:14:31.176Z,2.05
2023-04-11T13:17:39.485Z,1.70
2023-04-11T13:20:48.873Z,1.85
2023-04-11T13:23:57.136Z,1.55
2023-04-11T13:27:05.417Z,1.27
2023-04-11T13:30:14.689Z,1.48
2023-04-11T13:33:22.703Z,1.50
2023-04-11T13:36:32.206Z,1.60
2023-04-11T13:39:40.324Z,1.38
2023-04-11T13:42:48.481Z,1.75
2023-04-11T13:45:56.663Z,1.70
2023-04-11T13:49:06.093Z,1.45
2023-04-11T13:52:15.526Z,1.70
2023-04-11T13:55:23.716Z,1.38
2023-04-11T13:58:32.166Z,1.58
2023-04-11T14:01:40.523Z,1.70
2023-04-11T14:04:49.373Z,1.50
2023-04-11T14:07:58.705Z,1.30
2023-04-11T14:11:07.207Z,1.52
2023-04-11T14:14:15.286Z,1.58
2023-04-11T14:17:23.116Z,1.50
2023-04-11T14:20:30.996Z,1.17
2023-04-11T14:23:40.495Z,1.25
2023-04-11T14:26:48.299Z,1.58
2023-04-11T14:29:56.568Z,1.70
2023-04-11T14:33:04.601Z,1.70
2023-04-11T14:36:12.428Z,1.40
2023-04-11T14:39:21.645Z,1.52
2023-04-11T14:42:29.684Z,1.25
2023-04-11T14:45:37.711Z,1.48
2023-04-11T14:48:46.052Z,1.50
2023-04-11T14:51:53.984Z,1.23
2023-04-11T14:55:03.578Z,1.00
2023-04-11T14:58:11.771Z,1.52
2023-04-11T15:01:20.064Z,1.27
2023-04-11T15:04:28.121Z,1.17
2023-04-11T15:07:36.657Z,1.27
2023-04-11T15:10:46.175Z,1.00
2023-04-11T15:13:54.535Z,0.82
2023-04-11T15:17:02.512Z,1.65
2023-04-11T15:20:11.799Z,1.38
2023-04-11T15:23:19.656Z,1.02
2023-04-11T15:26:29.978Z,1.40
2023-04-11T15:29:37.977Z,1.38
2023-04-11T15:32:46.263Z,1.42
2023-04-11T15:35:54.641Z,1.42
2023-04-11T15:39:04.499Z,1.50
2023-04-11T15:42:14.045Z,0.95
2023-04-11T15:45:22.901Z,1.48
2023-04-11T15:48:31.121Z,1.40
2023-04-11T15:51:39.074Z,1.30
2023-04-11T15:54:47.105Z,2.20
2023-04-11T15:57:56.577Z,1.30
2023-04-11T16:01:04.540Z,1.15
2023-04-11T16:04:12.808Z,1.10
2023-04-11T16:07:23.065Z,1.27
2023-04-11T16:10:31.305Z,1.10
2023-04-11T16:13:43.953Z,1.58
2023-04-11T16:16:53.014Z,1.10
2023-04-11T16:20:01.189Z,1.33
2023-04-11T16:23:09.707Z,1.80
2023-04-11T16:26:17.601Z,1.33
2023-04-11T16:29:27.290Z,0.90
2023-04-11T16:32:35.181Z,1.88
2023-04-11T16:35:43.543Z,1.05
2023-04-11T16:38:51.579Z,1.27
2023-04-11T16:41:59.318Z,0.98
2023-04-11T16:45:09.511Z,0.90
2023-04-11T16:48:17.324Z,1.23
2023-04-11T16:51:26.000Z,2.20
2023-04-11T16:54:34.209Z,1.00
2023-04-11T16:57:42.542Z,1.17
2023-04-11T17:00:53.076Z,1.55
2023-04-11T17:04:02.280Z,1.25
2023-04-11T17:07:10.539Z,1.38
2023-04-11T17:10:18.754Z,1.65
2023-04-11T17:13:26.428Z,6.93
2023-04-11T17:16:35.870Z,14.27
2023-04-11T17:19:43.981Z,15.25
2023-04-11T17:22:52.111Z,12.85
2023-04-11T17:26:00.133Z,9.73
2023-04-11T17:29:07.842Z,8.13
2023-04-11T17:32:16.936Z,6.60
2023-04-11T17:35:24.901Z,7.07
2023-04-11T17:38:33.194Z,6.18
2023-04-11T17:41:41.252Z,5.35
2023-04-11T17:44:49.483Z,6.07
2023-04-11T17:47:59.212Z,4.35
2023-04-11T17:51:07.794Z,4.53
2023-04-11T17:54:15.986Z,4.50
2023-04-11T17:57:24.159Z,4.10
2023-04-11T18:00:35.000Z,5.15
2023-04-11T18:03:50.299Z,3.58
2023-04-11T18:06:58.613Z,3.75
2023-04-11T18:10:08.648Z,4.13
2023-04-11T18:13:16.502Z,3.10
2023-04-11T18:16:24.775Z,3.05
2023-04-11T18:19:34.039Z,4.10
2023-04-11T18:22:44.236Z,3.83
2023-04-11T18:25:52.047Z,3.22
2023-04-11T18:29:00.983Z,2.70
2023-04-11T18:32:08.799Z,3.05
2023-04-11T18:35:18.162Z,2.70
2023-04-11T18:38:26.460Z,2.90
2023-04-11T18:41:34.691Z,2.35
2023-04-11T18:44:43.747Z,3.00
2023-04-11T18:47:51.980Z,2.50
2023-04-11T18:51:01.878Z,2.17
2023-04-11T18:54:09.691Z,2.30
2023-04-11T18:57:17.666Z,2.42
2023-04-11T19:00:25.964Z,2.05
2023-04-11T19:03:34.704Z,2.47
2023-04-11T19:06:44.556Z,2.88
2023-04-11T19:09:53.138Z,2.13
2023-04-11T19:13:01.039Z,2.38
2023-04-11T19:16:09.012Z,1.92
2023-04-11T19:19:16.966Z,1.67
2023-04-11T19:22:26.479Z,1.92
2023-04-11T19:25:34.729Z,1.60
2023-04-11T19:28:42.999Z,1.73
2023-04-11T19:31:51.100Z,1.48
2023-04-11T19:34:59.244Z,2.88
2023-04-11T19:38:08.591Z,2.15
2023-04-11T19:41:17.822Z,1.77
2023-04-11T19:44:26.236Z,1.80
2023-04-11T19:47:34.138Z,1.80
2023-04-11T19:50:41.910Z,1.70
2023-04-11T19:53:51.384Z,1.80
2023-04-11T19:56:59.454Z,2.20
2023-04-11T20:00:12.087Z,1.58
2023-04-11T20:03:20.833Z,1.70
2023-04-11T20:06:29.453Z,1.48
2023-04-11T20:09:38.898Z,1.65
2023-04-11T20:12:47.029Z,1.67
2023-04-11T20:15:55.230Z,1.65
2023-04-11T20:19:03.405Z,1.85
2023-04-11T20:22:13.419Z,1.48
2023-04-11T20:25:22.653Z,1.40
2023-04-11T20:28:31.418Z,1.50
2023-04-11T20:31:39.342Z,1.45
2023-04-11T20:34:47.556Z,1.55
2023-04-11T20:37:56.032Z,1.48
2023-04-11T20:41:06.208Z,1.00
2023-04-11T20:44:17.883Z,1.90
2023-04-11T20:47:25.848Z,1.58
2023-04-11T20:50:34.230Z,1.60
2023-04-11T20:53:42.387Z,1.63
2023-04-11T20:56:52.470Z,1.17
2023-04-11T21:00:00.624Z,1.40
2023-04-11T21:03:09.067Z,1.42
2023-04-11T21:06:16.771Z,1.10
2023-04-11T21:09:24.831Z,1.55
2023-04-11T21:12:34.015Z,1.45
2023-04-11T21:15:41.942Z,1.10
2023-04-11T21:18:50.207Z,1.30
2023-04-11T21:21:58.261Z,1.10
2023-04-11T21:25:07.590Z,1.30
2023-04-11T21:28:17.185Z,1.45
2023-04-11T21:31:25.053Z,1.40
2023-04-11T21:34:33.163Z,2.00
2023-04-11T21:37:41.011Z,1.10
2023-04-11T21:40:51.132Z,1.15
2023-04-11T21:44:00.593Z,1.80
2023-04-11T21:47:08.534Z,1.60
2023-04-11T21:50:16.774Z,1.10
2023-04-11T21:53:24.628Z,1.73
2023-04-11T21:56:32.766Z,1.20
2023-04-11T21:59:42.181Z,1.10
2023-04-11T22:02:50.626Z,1.45
2023-04-11T22:05:59.246Z,1.38
2023-04-11T22:09:07.207Z,1.40
2023-04-11T22:12:17.303Z,1.52
2023-04-11T22:15:26.927Z,1.35
2023-04-11T22:18:38.195Z,1.80
2023-04-11T22:21:48.687Z,1.75
2023-04-11T22:24:57.916Z,1.60
2023-04-11T22:28:06.058Z,1.33
2023-04-11T22:31:15.557Z,1.33
2023-04-11T22:34:23.548Z,1.60
2023-04-11T22:37:31.733Z,1.50
2023-04-11T22:40:40.177Z,1.50
2023-04-11T22:43:48.187Z,0.90
2023-04-11T22:47:06.166Z,1.42
2023-04-11T22:50:15.535Z,1.38
2023-04-11T22:53:24.951Z,0.80
2023-04-11T22:56:32.912Z,1.33
2023-04-11T22:59:41.211Z,1.30
2023-04-11T23:02:50.892Z,2.10
2023-04-11T23:05:58.813Z,1.48
2023-04-11T23:09:07.435Z,1.42
2023-04-11T23:12:15.527Z,1.13
2023-04-11T23:15:23.524Z,1.60
2023-04-11T23:18:32.879Z,1.40
2023-04-11T23:21:41.078Z,1.70
2023-04-11T23:24:49.152Z,1.30
2023-04-11T23:27:57.201Z,1.23
2023-04-11T23:31:06.049Z,1.35
2023-04-11T23:34:15.263Z,1.35
2023-04-11T23:37:23.449Z,1.65
2023-04-11T23:40:31.777Z,1.60
2023-04-11T23:43:39.812Z,1.27
2023-04-11T23:46:47.918Z,1.35
2023-04-11T23:49:57.156Z,1.27
2023-04-11T23:53:05.765Z,1.17
2023-04-11T23:56:13.846Z,1.08
2023-04-11T23:59:21.974Z,1.35
